Terminal Aerodrome Forecast
Issued by NWS

Home | Current Version | Previous Version | Text Only | Print | Product List | Glossary On
Versions: 1 2 3 4 5 6 7 8 9 10 11 12 13 14 15 16 17 18 19 20
000
FTUS45 KTFX 181737
TAFLWT
TAF
KLWT 181737Z 1818/1918 36007KT 4SM -SN SCT015 OVC025
      TEMPO 1818/1822 2SM -SN BR OVC015
     FM190100 09008KT 4SM -SHSN SCT010 OVC020
      TEMPO 1902/1906 1SM -SN BR BKN010
     FM191200 35008KT P6SM VCSH SCT015 OVC025=

USA.gov is the U.S. government's official web portal to all federal, state and local government web resources and services.